createdAt,value
2018-06-19T00:00:07.936Z,19.56
2018-06-19T00:00:34.079Z,19.49
2018-06-19T00:01:00.263Z,19.52
2018-06-19T00:01:26.428Z,19.49
2018-06-19T00:01:52.560Z,19.52
2018-06-19T00:02:18.726Z,19.47
2018-06-19T00:02:44.880Z,19.51
2018-06-19T00:03:11.015Z,19.48
2018-06-19T00:03:37.170Z,19.51
2018-06-19T00:04:03.319Z,19.41
2018-06-19T00:04:29.457Z,19.39
2018-06-19T00:04:55.596Z,19.39
2018-06-19T00:05:21.733Z,19.4
2018-06-19T00:05:47.871Z,19.4
2018-06-19T00:06:14.037Z,19.4
2018-06-19T00:06:40.178Z,19.44
2018-06-19T00:07:06.313Z,19.29
2018-06-19T00:07:32.449Z,19.33
2018-06-19T00:07:58.594Z,19.33
2018-06-19T00:08:24.760Z,19.33
2018-06-19T00:08:50.905Z,19.36
2018-06-19T00:09:17.176Z,19.31
2018-06-19T00:09:43.407Z,19.3
2018-06-19T00:10:09.600Z,19.31
2018-06-19T00:10:35.767Z,19.34
2018-06-19T00:11:01.983Z,19.31
2018-06-19T00:11:28.183Z,19.3
2018-06-19T00:11:54.343Z,19.21
2018-06-19T00:12:20.477Z,19.33
2018-06-19T00:12:46.605Z,19.27
2018-06-19T00:13:12.772Z,19.26
2018-06-19T00:13:38.915Z,19.31
2018-06-19T00:14:05.073Z,19.29
2018-06-19T00:14:31.244Z,19.29
2018-06-19T00:14:57.699Z,19.29
2018-06-19T00:15:23.902Z,19.26
2018-06-19T00:15:50.110Z,19.3
2018-06-19T00:16:16.252Z,19.29
2018-06-19T00:16:42.394Z,19.26
2018-06-19T00:17:08.557Z,19.26
2018-06-19T00:17:34.696Z,19.26
2018-06-19T00:18:00.863Z,19.16
2018-06-19T00:18:27.001Z,19.29
2018-06-19T00:18:53.139Z,19.26
2018-06-19T00:19:19.277Z,19.24
2018-06-19T00:19:45.419Z,19.14
2018-06-19T00:20:11.627Z,19.21
2018-06-19T00:20:37.762Z,19.15
2018-06-19T00:21:03.907Z,19.22
2018-06-19T00:21:30.049Z,19.19
2018-06-19T00:21:56.212Z,19.12
2018-06-19T00:22:22.352Z,19.16
2018-06-19T00:22:48.495Z,19.12
2018-06-19T00:23:14.635Z,19.16
2018-06-19T00:23:40.777Z,19.14
2018-06-19T00:24:06.966Z,19.08
2018-06-19T00:24:33.176Z,19.11
2018-06-19T00:24:59.402Z,19.07
2018-06-19T00:25:25.832Z,19.09
2018-06-19T00:25:51.995Z,19.09
2018-06-19T00:26:18.133Z,19.04
2018-06-19T00:26:44.276Z,19.08
2018-06-19T00:27:10.506Z,19.09
2018-06-19T00:27:36.646Z,19.12
2018-06-19T00:28:02.784Z,19.09
2018-06-19T00:28:28.923Z,19.09
2018-06-19T00:28:55.065Z,19.08
2018-06-19T00:29:21.204Z,19.08
2018-06-19T00:29:47.367Z,19.07
2018-06-19T00:30:13.501Z,19.11
2018-06-19T00:30:39.696Z,19.11
2018-06-19T00:31:05.835Z,19.08
2018-06-19T00:31:32.006Z,19.07
2018-06-19T00:31:58.155Z,18.96
2018-06-19T00:32:24.302Z,19.04
2018-06-19T00:32:50.496Z,19.09
2018-06-19T00:33:16.918Z,19.09
2018-06-19T00:33:43.065Z,19.02
2018-06-19T00:34:09.210Z,18.98
2018-06-19T00:34:35.382Z,19.04
2018-06-19T00:35:01.520Z,19
2018-06-19T00:35:27.655Z,19.02
2018-06-19T00:35:53.819Z,19
2018-06-19T00:36:19.959Z,19
2018-06-19T00:36:46.134Z,18.99
2018-06-19T00:37:12.275Z,19.02
2018-06-19T00:37:38.414Z,19
2018-06-19T00:38:04.558Z,18.93
2018-06-19T00:38:30.729Z,18.99
2018-06-19T00:38:56.862Z,18.96
2018-06-19T00:39:23.244Z,18.99
2018-06-19T00:39:49.440Z,19.02
2018-06-19T00:40:16.123Z,19
2018-06-19T00:40:42.520Z,18.98
2018-06-19T00:41:08.657Z,18.98
2018-06-19T00:41:34.799Z,18.98
2018-06-19T00:42:00.932Z,18.99
2018-06-19T00:42:27.076Z,19.04
2018-06-19T00:42:53.241Z,19.07
2018-06-19T00:43:19.386Z,19.04
2018-06-19T00:43:45.524Z,18.99
2018-06-19T00:44:11.674Z,19.04
2018-06-19T00:44:37.865Z,19.02
2018-06-19T00:45:04.004Z,18.92
2018-06-19T00:45:30.171Z,18.95
2018-06-19T00:45:56.330Z,18.9
2018-06-19T00:46:22.471Z,18.95
2018-06-19T00:46:48.646Z,18.83
2018-06-19T00:47:14.836Z,18.8
2018-06-19T00:47:40.984Z,18.86
2018-06-19T00:48:07.118Z,18.83
2018-06-19T00:48:33.260Z,18.83
2018-06-19T00:48:59.404Z,18.83
2018-06-19T00:49:25.549Z,18.83
2018-06-19T00:49:51.683Z,18.83
2018-06-19T00:50:17.849Z,18.83
2018-06-19T00:50:44.199Z,18.8
2018-06-19T00:51:10.338Z,18.83
2018-06-19T00:51:36.476Z,18.81
2018-06-19T00:52:02.609Z,18.84
2018-06-19T00:52:28.753Z,18.88
2018-06-19T00:52:54.888Z,18.88
2018-06-19T00:53:21.034Z,18.86
2018-06-19T00:53:47.222Z,18.83
2018-06-19T00:54:13.386Z,18.83
2018-06-19T00:54:39.523Z,18.83
2018-06-19T00:55:05.662Z,18.88
2018-06-19T00:55:31.802Z,18.83
2018-06-19T00:55:57.940Z,18.83
2018-06-19T00:56:24.105Z,18.88
2018-06-19T00:56:50.222Z,18.92
2018-06-19T00:57:16.362Z,18.92
2018-06-19T00:57:42.502Z,18.84
2018-06-19T00:58:08.643Z,18.8
2018-06-19T00:58:34.779Z,18.88
2018-06-19T00:59:00.941Z,18.83
2018-06-19T00:59:27.084Z,18.9
2018-06-19T00:59:53.223Z,18.92
2018-06-19T01:00:19.367Z,18.86
2018-06-19T01:00:45.510Z,18.84
2018-06-19T01:01:11.656Z,18.89
2018-06-19T01:01:37.796Z,18.92
2018-06-19T01:02:03.926Z,18.83
2018-06-19T01:02:30.072Z,18.89
2018-06-19T01:02:56.209Z,18.89
2018-06-19T01:03:22.340Z,18.89
2018-06-19T01:03:48.483Z,18.92
2018-06-19T01:04:14.625Z,18.86
2018-06-19T01:04:40.763Z,18.86
2018-06-19T01:05:06.903Z,18.88
2018-06-19T01:05:33.040Z,18.88
2018-06-19T01:05:59.176Z,18.95
2018-06-19T01:06:25.320Z,18.9
2018-06-19T01:06:51.457Z,18.9
2018-06-19T01:07:17.598Z,18.9
2018-06-19T01:07:43.759Z,19.02
2018-06-19T01:08:09.905Z,18.99
2018-06-19T01:08:36.048Z,19.08
2018-06-19T01:09:02.186Z,19.07
2018-06-19T01:09:28.323Z,19.08
2018-06-19T01:09:54.463Z,19
2018-06-19T01:10:20.601Z,19
2018-06-19T01:10:46.742Z,18.95
2018-06-19T01:11:12.877Z,18.99
2018-06-19T01:11:39.052Z,19.04
2018-06-19T01:12:05.193Z,19.04
2018-06-19T01:12:31.332Z,19.08
2018-06-19T01:12:57.480Z,19.07
2018-06-19T01:13:23.610Z,19.07
2018-06-19T01:13:49.757Z,19.07
2018-06-19T01:14:15.900Z,19.04
2018-06-19T01:14:42.035Z,19.08
2018-06-19T01:15:08.176Z,19.02
2018-06-19T01:15:34.356Z,19.02
2018-06-19T01:16:00.522Z,19.04
2018-06-19T01:16:26.660Z,19.14
2018-06-19T01:16:52.795Z,19.09
2018-06-19T01:17:18.940Z,19.09
2018-06-19T01:17:45.082Z,19.12
2018-06-19T01:18:11.220Z,19.11
2018-06-19T01:18:37.362Z,19.04
2018-06-19T01:19:03.507Z,19.02
2018-06-19T01:19:29.672Z,19.07
2018-06-19T01:19:55.867Z,19.07
2018-06-19T01:20:22.009Z,18.99
2018-06-19T01:20:48.149Z,19.08
2018-06-19T01:21:14.287Z,18.95
2018-06-19T01:21:40.443Z,19.02
2018-06-19T01:22:06.583Z,19.08
2018-06-19T01:22:32.724Z,19.09
2018-06-19T01:22:58.862Z,19.08
2018-06-19T01:23:25.008Z,18.95
2018-06-19T01:23:51.144Z,19.11
2018-06-19T01:24:17.281Z,19.04
2018-06-19T01:24:43.424Z,19.08
2018-06-19T01:25:09.564Z,19.09
2018-06-19T01:25:35.701Z,19.04
2018-06-19T01:26:01.866Z,19.09
2018-06-19T01:26:28.001Z,18.99
2018-06-19T01:26:54.144Z,18.99
2018-06-19T01:27:20.281Z,19.02
2018-06-19T01:27:46.440Z,18.95
2018-06-19T01:28:12.580Z,18.92
2018-06-19T01:28:38.782Z,19.09
2018-06-19T01:29:04.857Z,19.09
2018-06-19T01:29:31.000Z,19
2018-06-19T01:29:57.143Z,19.07
2018-06-19T01:30:23.285Z,19.04
2018-06-19T01:30:49.417Z,18.95
2018-06-19T01:31:15.563Z,19.07
2018-06-19T01:31:41.701Z,19
2018-06-19T01:32:07.842Z,19.09
2018-06-19T01:32:33.974Z,19.04
2018-06-19T01:33:00.115Z,19.04
2018-06-19T01:33:26.253Z,19.08
2018-06-19T01:33:52.395Z,18.99
2018-06-19T01:34:18.535Z,19.09
2018-06-19T01:34:44.677Z,19
2018-06-19T01:35:10.821Z,18.98
2018-06-19T01:35:36.959Z,18.98
2018-06-19T01:36:03.099Z,19.08
2018-06-19T01:36:29.239Z,19.09
2018-06-19T01:36:55.378Z,18.99
2018-06-19T01:37:21.518Z,19.09
2018-06-19T01:37:47.655Z,18.92
2018-06-19T01:38:13.869Z,19.02
2018-06-19T01:38:39.994Z,19
2018-06-19T01:39:06.131Z,19
2018-06-19T01:39:32.278Z,19.02
2018-06-19T01:39:58.424Z,19
2018-06-19T01:40:24.560Z,18.98
2018-06-19T01:40:50.703Z,19
2018-06-19T01:41:16.840Z,19.02
2018-06-19T01:41:42.972Z,19
2018-06-19T01:42:09.115Z,19.04
2018-06-19T01:42:35.265Z,19.07
2018-06-19T01:43:01.402Z,18.99
2018-06-19T01:43:27.542Z,19.02
2018-06-19T01:43:53.680Z,18.99
2018-06-19T01:44:19.824Z,19.04
2018-06-19T01:44:45.986Z,18.92
2018-06-19T01:45:12.123Z,19.02
2018-06-19T01:45:38.262Z,18.9
2018-06-19T01:46:04.402Z,18.89
2018-06-19T01:46:30.540Z,18.89
2018-06-19T01:46:56.707Z,18.93
2018-06-19T01:47:22.849Z,18.9
2018-06-19T01:47:48.999Z,18.83
2018-06-19T01:48:15.153Z,18.77
2018-06-19T01:48:41.291Z,18.83
2018-06-19T01:49:07.439Z,18.86
2018-06-19T01:49:33.572Z,18.9
2018-06-19T01:49:59.711Z,18.9
2018-06-19T01:50:25.849Z,18.88
2018-06-19T01:50:51.992Z,18.83
2018-06-19T01:51:18.135Z,18.9
2018-06-19T01:51:44.272Z,18.84
2018-06-19T01:52:10.418Z,18.84
2018-06-19T01:52:36.553Z,18.83
2018-06-19T01:53:02.695Z,18.83
2018-06-19T01:53:28.884Z,18.8
2018-06-19T01:53:54.973Z,18.89
2018-06-19T01:54:21.109Z,18.9
2018-06-19T01:54:47.249Z,18.93
2018-06-19T01:55:13.389Z,18.93
2018-06-19T01:55:39.525Z,18.93
2018-06-19T01:56:05.663Z,18.83
2018-06-19T01:56:31.822Z,18.89
2018-06-19T01:56:57.967Z,18.89
2018-06-19T01:57:24.105Z,18.88
2018-06-19T01:57:50.272Z,18.92
2018-06-19T01:58:16.409Z,18.84
2018-06-19T01:58:42.548Z,18.83
2018-06-19T01:59:08.680Z,18.95
2018-06-19T01:59:34.823Z,18.86
2018-06-19T02:00:00.997Z,18.86
2018-06-19T02:00:27.137Z,18.84
2018-06-19T02:00:53.275Z,18.83
2018-06-19T02:01:19.432Z,18.88
2018-06-19T02:01:45.567Z,18.86
2018-06-19T02:02:11.713Z,18.84
2018-06-19T02:02:37.943Z,18.81
2018-06-19T02:03:04.087Z,18.92
2018-06-19T02:03:30.229Z,18.81
2018-06-19T02:03:56.389Z,18.81
2018-06-19T02:04:22.528Z,18.93
2018-06-19T02:04:48.720Z,18.86
2018-06-19T02:05:14.894Z,18.93
2018-06-19T02:05:41.032Z,19.04
2018-06-19T02:06:07.172Z,18.95
2018-06-19T02:06:33.312Z,18.96
2018-06-19T02:06:59.447Z,19.02
2018-06-19T02:07:25.585Z,18.99
2018-06-19T02:07:51.729Z,19.04
2018-06-19T02:08:17.863Z,18.99
2018-06-19T02:08:44.004Z,18.92
2018-06-19T02:09:10.145Z,18.93
2018-06-19T02:09:36.310Z,19
2018-06-19T02:10:02.473Z,19.04
2018-06-19T02:10:28.614Z,19
2018-06-19T02:10:54.755Z,18.99
2018-06-19T02:11:20.894Z,19
2018-06-19T02:11:47.033Z,19.04
2018-06-19T02:12:13.176Z,19
2018-06-19T02:12:39.311Z,19
2018-06-19T02:13:05.448Z,19
2018-06-19T02:13:31.649Z,18.99
2018-06-19T02:13:57.786Z,18.99
2018-06-19T02:14:23.923Z,18.92
2018-06-19T02:14:50.069Z,18.89
2018-06-19T02:15:16.203Z,18.99
2018-06-19T02:15:42.345Z,19.04
2018-06-19T02:16:08.478Z,19.02
2018-06-19T02:16:34.626Z,18.96
2018-06-19T02:17:00.763Z,19.04
2018-06-19T02:17:26.903Z,19
2018-06-19T02:17:53.036Z,18.98
2018-06-19T02:18:19.198Z,18.99
2018-06-19T02:18:45.332Z,19
2018-06-19T02:19:11.468Z,18.99
2018-06-19T02:19:37.608Z,19
2018-06-19T02:20:03.769Z,19
2018-06-19T02:20:29.913Z,19
2018-06-19T02:20:56.075Z,18.93
2018-06-19T02:21:22.218Z,18.96
2018-06-19T02:21:48.358Z,18.93
2018-06-19T02:22:14.501Z,18.9
2018-06-19T02:22:40.635Z,18.95
2018-06-19T02:23:06.802Z,18.84
2018-06-19T02:23:32.934Z,18.83
2018-06-19T02:23:59.098Z,18.88
2018-06-19T02:24:25.237Z,18.9
2018-06-19T02:24:51.374Z,18.86
2018-06-19T02:25:17.508Z,18.86
2018-06-19T02:25:43.677Z,18.84
2018-06-19T02:26:09.847Z,18.86
2018-06-19T02:26:36.000Z,18.84
2018-06-19T02:27:02.139Z,18.81
2018-06-19T02:27:28.281Z,18.84
2018-06-19T02:27:54.440Z,18.86
2018-06-19T02:28:20.582Z,18.9
2018-06-19T02:28:46.747Z,19
2018-06-19T02:29:12.877Z,19.07
2018-06-19T02:29:39.018Z,19
2018-06-19T02:30:05.165Z,19.07
2018-06-19T02:30:31.313Z,19.07
2018-06-19T02:30:57.521Z,18.98
2018-06-19T02:31:23.682Z,19
2018-06-19T02:31:49.855Z,18.99
2018-06-19T02:32:16.020Z,19.04
2018-06-19T02:32:42.181Z,19.02
2018-06-19T02:33:08.322Z,19.04
2018-06-19T02:33:34.482Z,18.93
2018-06-19T02:34:00.665Z,19.07
2018-06-19T02:34:26.852Z,19
2018-06-19T02:34:53.033Z,18.99
2018-06-19T02:35:19.231Z,18.99
2018-06-19T02:35:45.373Z,19.02
2018-06-19T02:36:11.545Z,18.88
2018-06-19T02:36:37.733Z,19.02
2018-06-19T02:37:03.897Z,18.92
2018-06-19T02:37:30.035Z,18.86
2018-06-19T02:37:56.198Z,18.84
2018-06-19T02:38:22.369Z,18.95
2018-06-19T02:38:48.557Z,18.84
2018-06-19T02:39:14.699Z,18.88
2018-06-19T02:39:40.867Z,18.95
2018-06-19T02:40:07.042Z,18.9
2018-06-19T02:40:33.208Z,18.9
2018-06-19T02:40:59.381Z,18.86
2018-06-19T02:41:25.546Z,18.9
2018-06-19T02:41:51.702Z,18.93
2018-06-19T02:42:17.842Z,18.92
2018-06-19T02:42:44.013Z,18.95
2018-06-19T02:43:10.180Z,19.07
2018-06-19T02:43:36.361Z,18.98
2018-06-19T02:44:02.512Z,19
2018-06-19T02:44:28.646Z,18.99
2018-06-19T02:44:54.828Z,19.02
2018-06-19T02:45:21.020Z,18.99
2018-06-19T02:45:47.149Z,18.9
2018-06-19T02:46:13.318Z,18.86
2018-06-19T02:46:39.482Z,18.92
2018-06-19T02:47:05.643Z,18.88
2018-06-19T02:47:31.800Z,18.88
2018-06-19T02:47:57.965Z,18.84
2018-06-19T02:48:24.102Z,18.86
2018-06-19T02:48:50.248Z,18.86
2018-06-19T02:49:16.413Z,18.81
2018-06-19T02:49:42.578Z,18.86
2018-06-19T02:50:08.714Z,18.86
2018-06-19T02:50:34.877Z,18.83
2018-06-19T02:51:01.047Z,18.8
2018-06-19T02:51:27.183Z,18.83
2018-06-19T02:51:53.323Z,18.86
2018-06-19T02:52:19.469Z,18.86
2018-06-19T02:52:45.610Z,18.81
2018-06-19T02:53:11.776Z,18.89
2018-06-19T02:53:37.910Z,18.81
2018-06-19T02:54:04.074Z,18.81
2018-06-19T02:54:30.209Z,18.8
2018-06-19T02:54:56.390Z,18.86
2018-06-19T02:55:22.558Z,18.89
2018-06-19T02:55:48.697Z,18.83
2018-06-19T02:56:14.896Z,18.86
2018-06-19T02:56:41.057Z,18.86
2018-06-19T02:57:07.247Z,18.8
2018-06-19T02:57:33.376Z,18.75
2018-06-19T02:57:59.542Z,18.8
2018-06-19T02:58:25.677Z,18.8
2018-06-19T02:58:51.815Z,18.8
2018-06-19T02:59:17.958Z,18.83
2018-06-19T02:59:44.097Z,18.83
2018-06-19T03:00:10.293Z,18.75
2018-06-19T03:00:36.461Z,18.86
2018-06-19T03:01:02.741Z,18.78
2018-06-19T03:01:29.001Z,18.83
2018-06-19T03:01:55.232Z,18.84
2018-06-19T03:02:21.423Z,18.88
2018-06-19T03:02:47.714Z,18.74
2018-06-19T03:03:13.923Z,18.81
2018-06-19T03:03:40.173Z,18.83
2018-06-19T03:04:06.370Z,18.83
2018-06-19T03:04:32.600Z,18.84
2018-06-19T03:04:58.822Z,18.86
2018-06-19T03:05:25.007Z,18.88
2018-06-19T03:05:51.223Z,18.78
2018-06-19T03:06:17.482Z,18.83
2018-06-19T03:06:43.659Z,18.75
2018-06-19T03:07:09.823Z,18.81
2018-06-19T03:07:35.973Z,18.83
2018-06-19T03:08:02.127Z,18.81
2018-06-19T03:08:28.262Z,18.89
2018-06-19T03:08:54.424Z,18.81
2018-06-19T03:09:20.599Z,18.78
2018-06-19T03:09:46.749Z,18.81
2018-06-19T03:10:12.935Z,18.75
2018-06-19T03:10:39.125Z,18.75
2018-06-19T03:11:05.310Z,18.73
2018-06-19T03:11:31.469Z,18.75
2018-06-19T03:11:57.609Z,18.74
2018-06-19T03:12:23.754Z,18.7
2018-06-19T03:12:49.886Z,18.71
2018-06-19T03:13:16.077Z,18.77
2018-06-19T03:13:42.260Z,18.75
2018-06-19T03:14:08.400Z,18.56
2018-06-19T03:14:34.563Z,18.7
2018-06-19T03:15:00.780Z,18.62
2018-06-19T03:15:26.919Z,18.73
2018-06-19T03:15:53.086Z,18.66
2018-06-19T03:16:19.223Z,18.65
2018-06-19T03:16:45.363Z,18.68
2018-06-19T03:17:11.527Z,18.73
2018-06-19T03:17:37.674Z,18.74
2018-06-19T03:18:03.827Z,18.68
2018-06-19T03:18:29.987Z,18.75
2018-06-19T03:18:56.125Z,18.73
2018-06-19T03:19:22.276Z,18.7
2018-06-19T03:19:48.460Z,18.66
2018-06-19T03:20:14.599Z,18.68
2018-06-19T03:20:40.734Z,18.7
2018-06-19T03:21:06.902Z,18.74
2018-06-19T03:21:33.050Z,18.77
2018-06-19T03:21:59.210Z,18.8
2018-06-19T03:22:25.363Z,18.86
2018-06-19T03:22:51.530Z,18.77
2018-06-19T03:23:17.676Z,18.78
2018-06-19T03:23:43.807Z,18.7
2018-06-19T03:24:09.968Z,18.78
2018-06-19T03:24:36.107Z,18.77
2018-06-19T03:25:02.252Z,18.77
2018-06-19T03:25:28.388Z,18.73
2018-06-19T03:25:54.536Z,18.77
2018-06-19T03:26:20.697Z,18.7
2018-06-19T03:26:46.863Z,18.77
2018-06-19T03:27:13.001Z,18.74
2018-06-19T03:27:39.139Z,18.77
2018-06-19T03:28:05.274Z,18.8
2018-06-19T03:28:31.435Z,18.74
2018-06-19T03:28:57.573Z,18.78
2018-06-19T03:29:23.713Z,18.75
2018-06-19T03:29:49.854Z,18.78
2018-06-19T03:30:16.000Z,18.78
2018-06-19T03:30:42.173Z,18.73
2018-06-19T03:31:08.353Z,18.81
2018-06-19T03:31:34.516Z,18.78
2018-06-19T03:32:00.675Z,18.8
2018-06-19T03:32:26.841Z,18.74
2018-06-19T03:32:53.000Z,18.78
2018-06-19T03:33:19.221Z,18.83
2018-06-19T03:33:45.425Z,18.86
2018-06-19T03:34:11.638Z,18.83
2018-06-19T03:34:37.819Z,18.84
2018-06-19T03:35:03.956Z,18.83
2018-06-19T03:35:30.096Z,18.78
2018-06-19T03:35:56.232Z,18.88
2018-06-19T03:36:22.374Z,18.81
2018-06-19T03:36:48.510Z,18.84
2018-06-19T03:37:14.651Z,18.89
2018-06-19T03:37:40.794Z,18.84
2018-06-19T03:38:06.931Z,18.74
2018-06-19T03:38:33.068Z,18.88
2018-06-19T03:38:59.210Z,18.81
2018-06-19T03:39:25.388Z,18.81
2018-06-19T03:39:51.521Z,18.84
2018-06-19T03:40:17.686Z,18.78
2018-06-19T03:40:43.828Z,18.81
2018-06-19T03:41:09.976Z,18.86
2018-06-19T03:41:36.112Z,18.75
2018-06-19T03:42:02.246Z,18.74
2018-06-19T03:42:28.392Z,18.66
2018-06-19T03:42:54.529Z,18.7
2018-06-19T03:43:20.673Z,18.81
2018-06-19T03:43:46.833Z,18.73
2018-06-19T03:44:12.975Z,18.8
2018-06-19T03:44:39.143Z,18.75
2018-06-19T03:45:05.324Z,18.74
2018-06-19T03:45:31.488Z,18.73
2018-06-19T03:45:57.624Z,18.75
2018-06-19T03:46:23.768Z,18.73
2018-06-19T03:46:49.911Z,18.78
2018-06-19T03:47:16.072Z,18.89
2018-06-19T03:47:42.210Z,18.71
2018-06-19T03:48:08.383Z,18.78
2018-06-19T03:48:34.547Z,18.75
2018-06-19T03:49:00.680Z,18.83
2018-06-19T03:49:26.823Z,18.73
2018-06-19T03:49:52.964Z,18.74
2018-06-19T03:50:19.097Z,18.8
2018-06-19T03:50:45.236Z,18.74
2018-06-19T03:51:11.399Z,18.71
2018-06-19T03:51:37.546Z,18.71
2018-06-19T03:52:03.670Z,18.74
2018-06-19T03:52:29.842Z,18.83
2018-06-19T03:52:55.975Z,18.74
2018-06-19T03:53:22.122Z,18.74
2018-06-19T03:53:48.286Z,18.74
2018-06-19T03:54:14.425Z,18.7
2018-06-19T03:54:40.564Z,18.66
2018-06-19T03:55:06.733Z,18.78
2018-06-19T03:55:32.875Z,18.68
2018-06-19T03:55:59.038Z,18.68
2018-06-19T03:56:25.202Z,18.73
2018-06-19T03:56:51.336Z,18.8
2018-06-19T03:57:17.480Z,18.7
2018-06-19T03:57:43.639Z,18.77
2018-06-19T03:58:09.779Z,18.74
2018-06-19T03:58:35.921Z,18.75
2018-06-19T03:59:02.063Z,18.75
2018-06-19T03:59:28.223Z,18.77
2018-06-19T03:59:54.365Z,18.77
2018-06-19T04:00:20.502Z,18.73
2018-06-19T04:00:46.644Z,18.68
2018-06-19T04:01:12.868Z,18.7
2018-06-19T04:01:38.980Z,18.81
2018-06-19T04:02:05.126Z,18.77
2018-06-19T04:02:31.261Z,18.74
2018-06-19T04:02:57.424Z,18.74
2018-06-19T04:03:23.565Z,18.8
2018-06-19T04:03:49.705Z,18.74
2018-06-19T04:04:15.845Z,18.77
2018-06-19T04:04:41.991Z,18.74
2018-06-19T04:05:08.148Z,18.66
2018-06-19T04:05:34.289Z,18.71
2018-06-19T04:06:00.429Z,18.65
2018-06-19T04:06:26.566Z,18.66
2018-06-19T04:06:52.703Z,18.75
2018-06-19T04:07:18.876Z,18.66
2018-06-19T04:07:45.039Z,18.65
2018-06-19T04:08:11.177Z,18.75
2018-06-19T04:08:37.318Z,18.65
2018-06-19T04:09:03.449Z,18.63
2018-06-19T04:09:29.599Z,18.71
2018-06-19T04:09:55.738Z,18.6
2018-06-19T04:10:21.907Z,18.66
2018-06-19T04:10:48.034Z,18.62
2018-06-19T04:11:14.177Z,18.68
2018-06-19T04:11:40.313Z,18.65
2018-06-19T04:12:06.536Z,18.65
2018-06-19T04:12:32.666Z,18.68
2018-06-19T04:12:58.811Z,18.71
2018-06-19T04:13:24.981Z,18.63
2018-06-19T04:13:51.113Z,18.63
2018-06-19T04:14:17.276Z,18.6
2018-06-19T04:14:43.415Z,18.66
2018-06-19T04:15:09.552Z,18.74
2018-06-19T04:15:35.693Z,18.71
2018-06-19T04:16:01.834Z,18.73
2018-06-19T04:16:27.997Z,18.77
2018-06-19T04:16:54.138Z,18.73
2018-06-19T04:17:20.281Z,18.83
2018-06-19T04:17:46.413Z,18.75
2018-06-19T04:18:12.585Z,18.8
2018-06-19T04:18:38.725Z,18.83
2018-06-19T04:19:04.866Z,18.71
2018-06-19T04:19:31.013Z,18.74
2018-06-19T04:19:57.175Z,18.66
2018-06-19T04:20:23.338Z,18.65
2018-06-19T04:20:49.485Z,18.68
2018-06-19T04:21:15.627Z,18.65
2018-06-19T04:21:41.752Z,18.6
2018-06-19T04:22:07.887Z,18.6
2018-06-19T04:22:34.027Z,18.65
2018-06-19T04:23:00.165Z,18.63
2018-06-19T04:23:26.334Z,18.6
2018-06-19T04:23:52.481Z,18.62
2018-06-19T04:24:18.649Z,18.59
2018-06-19T04:24:44.779Z,18.62
2018-06-19T04:25:10.923Z,18.6
2018-06-19T04:25:37.083Z,18.62
2018-06-19T04:26:03.222Z,18.62
2018-06-19T04:26:29.358Z,18.52
2018-06-19T04:26:55.550Z,18.62
2018-06-19T04:27:21.688Z,18.59
2018-06-19T04:27:47.824Z,18.71
2018-06-19T04:28:13.969Z,18.68
2018-06-19T04:28:40.100Z,18.74
2018-06-19T04:29:06.237Z,18.73
2018-06-19T04:29:32.402Z,18.77
2018-06-19T04:29:58.534Z,18.74
2018-06-19T04:30:24.706Z,18.77
2018-06-19T04:30:50.845Z,18.75
2018-06-19T04:31:16.991Z,18.68
2018-06-19T04:31:43.126Z,18.78
2018-06-19T04:32:09.267Z,18.7
2018-06-19T04:32:35.402Z,18.68
2018-06-19T04:33:01.540Z,18.75
2018-06-19T04:33:27.716Z,18.74
2018-06-19T04:33:53.854Z,18.78
2018-06-19T04:34:19.993Z,18.75
2018-06-19T04:34:46.138Z,18.77
2018-06-19T04:35:12.300Z,18.81
2018-06-19T04:35:38.442Z,18.74
2018-06-19T04:36:04.607Z,18.75
2018-06-19T04:36:30.747Z,18.77
2018-06-19T04:36:56.883Z,18.7
2018-06-19T04:37:23.024Z,18.56
2018-06-19T04:37:49.164Z,18.6
2018-06-19T04:38:15.304Z,18.65
2018-06-19T04:38:41.440Z,18.68
2018-06-19T04:39:07.576Z,18.71
2018-06-19T04:39:33.720Z,18.71
2018-06-19T04:39:59.860Z,18.75
2018-06-19T04:40:26.024Z,18.78
2018-06-19T04:40:52.180Z,18.78
2018-06-19T04:41:18.325Z,18.7
2018-06-19T04:41:44.489Z,18.84
2018-06-19T04:42:10.665Z,18.75
2018-06-19T04:42:36.783Z,18.7
2018-06-19T04:43:02.919Z,18.83
2018-06-19T04:43:29.060Z,18.7
2018-06-19T04:43:55.201Z,18.84
2018-06-19T04:44:21.349Z,18.81
2018-06-19T04:44:47.492Z,18.77
2018-06-19T04:45:13.631Z,18.78
2018-06-19T04:45:39.784Z,18.77
2018-06-19T04:46:05.930Z,18.75
2018-06-19T04:46:32.068Z,18.78
2018-06-19T04:46:58.204Z,18.77
2018-06-19T04:47:24.344Z,18.66
2018-06-19T04:47:50.484Z,18.68
2018-06-19T04:48:16.621Z,18.73
2018-06-19T04:48:42.768Z,18.63
2018-06-19T04:49:08.911Z,18.63
2018-06-19T04:49:35.051Z,18.65
2018-06-19T04:50:01.194Z,18.66
2018-06-19T04:50:27.328Z,18.6
2018-06-19T04:50:53.473Z,18.66
2018-06-19T04:51:19.612Z,18.66
2018-06-19T04:51:45.805Z,18.74
2018-06-19T04:52:11.942Z,18.77
2018-06-19T04:52:38.104Z,18.78
2018-06-19T04:53:04.243Z,18.74
2018-06-19T04:53:30.429Z,18.81
2018-06-19T04:53:56.571Z,18.75
2018-06-19T04:54:22.709Z,18.77
2018-06-19T04:54:48.850Z,18.71
2018-06-19T04:55:14.993Z,18.6
2018-06-19T04:55:41.131Z,18.66
2018-06-19T04:56:07.272Z,18.68
2018-06-19T04:56:33.430Z,18.6
2018-06-19T04:56:59.598Z,18.7
2018-06-19T04:57:25.741Z,18.68
2018-06-19T04:57:51.880Z,18.71
2018-06-19T04:58:18.014Z,18.73
2018-06-19T04:58:44.158Z,18.7
2018-06-19T04:59:10.296Z,18.71
2018-06-19T04:59:36.441Z,18.73
2018-06-19T05:00:02.580Z,18.74
2018-06-19T05:00:28.718Z,18.65
2018-06-19T05:00:54.880Z,18.65
2018-06-19T05:01:21.051Z,18.81
2018-06-19T05:01:47.193Z,18.73
2018-06-19T05:02:13.354Z,18.66
2018-06-19T05:02:39.517Z,18.77
2018-06-19T05:03:05.659Z,18.8
2018-06-19T05:03:31.822Z,18.75
2018-06-19T05:03:57.977Z,18.81
2018-06-19T05:04:24.115Z,18.7
2018-06-19T05:04:50.260Z,18.78
2018-06-19T05:05:16.403Z,18.81
2018-06-19T05:05:42.563Z,18.75
2018-06-19T05:06:08.691Z,18.78
2018-06-19T05:06:34.858Z,18.8
2018-06-19T05:07:01.028Z,18.77
2018-06-19T05:07:27.165Z,18.71
2018-06-19T05:07:53.312Z,18.74
2018-06-19T05:08:19.444Z,18.74
2018-06-19T05:08:45.583Z,18.78
2018-06-19T05:09:11.725Z,18.8
2018-06-19T05:09:37.862Z,18.88
2018-06-19T05:10:04.038Z,18.86
2018-06-19T05:10:30.197Z,18.83
2018-06-19T05:10:56.335Z,18.8
2018-06-19T05:11:22.505Z,18.83
2018-06-19T05:11:48.642Z,18.86
2018-06-19T05:12:14.784Z,18.83
2018-06-19T05:12:40.950Z,18.83
2018-06-19T05:13:07.092Z,18.83
2018-06-19T05:13:33.273Z,18.81
2018-06-19T05:13:59.414Z,18.86
2018-06-19T05:14:25.547Z,18.83
2018-06-19T05:14:51.688Z,18.8
2018-06-19T05:15:17.829Z,18.88
2018-06-19T05:15:43.966Z,18.93
2018-06-19T05:16:10.104Z,18.92
2018-06-19T05:16:36.247Z,18.96
2018-06-19T05:17:02.387Z,18.9
2018-06-19T05:17:28.531Z,18.86
2018-06-19T05:17:54.671Z,18.86
2018-06-19T05:18:20.813Z,18.88
2018-06-19T05:18:46.954Z,18.86
2018-06-19T05:19:13.115Z,18.88
2018-06-19T05:19:39.257Z,18.9
2018-06-19T05:20:05.401Z,19.02
2018-06-19T05:20:31.561Z,18.98
2018-06-19T05:20:57.701Z,19.08
2018-06-19T05:21:23.853Z,19.07
2018-06-19T05:21:49.994Z,19
2018-06-19T05:22:16.159Z,18.95
2018-06-19T05:22:42.293Z,18.98
2018-06-19T05:23:08.438Z,18.93
2018-06-19T05:23:34.569Z,18.98
2018-06-19T05:24:00.728Z,18.99
2018-06-19T05:24:26.855Z,18.93
2018-06-19T05:24:52.996Z,19
2018-06-19T05:25:19.137Z,19.09
2018-06-19T05:25:45.274Z,19.04
2018-06-19T05:26:11.414Z,19.07
2018-06-19T05:26:37.563Z,19.07
2018-06-19T05:27:03.762Z,19.09
2018-06-19T05:27:29.914Z,19.02
2018-06-19T05:27:56.082Z,19.09
2018-06-19T05:28:22.213Z,19.08
2018-06-19T05:28:48.360Z,19.08
2018-06-19T05:29:14.515Z,19.11
2018-06-19T05:29:40.654Z,19.12
2018-06-19T05:30:06.797Z,19.09
2018-06-19T05:30:32.934Z,19.08
2018-06-19T05:30:59.083Z,19.11
2018-06-19T05:31:25.251Z,19.09
2018-06-19T05:31:51.389Z,19.14
2018-06-19T05:32:17.533Z,19.14
2018-06-19T05:32:43.676Z,19.16
2018-06-19T05:33:09.817Z,19.12
2018-06-19T05:33:35.956Z,19.08
2018-06-19T05:34:02.099Z,19.07
2018-06-19T05:34:28.243Z,19.07
2018-06-19T05:34:54.433Z,19.04
2018-06-19T05:35:20.516Z,18.99
2018-06-19T05:35:46.686Z,19
2018-06-19T05:36:12.855Z,18.96
2018-06-19T05:36:39.017Z,18.98
2018-06-19T05:37:05.153Z,19
2018-06-19T05:37:31.296Z,18.95
2018-06-19T05:37:57.467Z,18.99
2018-06-19T05:38:23.633Z,18.96
2018-06-19T05:38:49.769Z,18.99
2018-06-19T05:39:15.913Z,19.04